createdAt,value
2018-05-13T00:00:10.860Z,17.50
2018-05-13T00:02:39.154Z,17.40
2018-05-13T00:05:07.462Z,17.40
2018-05-13T00:07:36.522Z,17.30
2018-05-13T00:10:05.864Z,17.30
2018-05-13T00:12:34.164Z,17.20
2018-05-13T00:15:02.463Z,17.20
2018-05-13T00:17:30.723Z,17.20
2018-05-13T00:19:59.023Z,17.10
2018-05-13T00:22:27.308Z,17.10
2018-05-13T00:24:55.621Z,17.00
2018-05-13T00:27:23.924Z,17.00
2018-05-13T00:29:52.245Z,16.90
2018-05-13T00:32:21.306Z,16.90
2018-05-13T00:34:49.632Z,16.80
2018-05-13T00:37:17.944Z,16.90
2018-05-13T00:39:46.264Z,16.80
2018-05-13T00:42:14.614Z,16.80
2018-05-13T00:44:43.596Z,16.80
2018-05-13T00:47:11.929Z,16.70
2018-05-13T00:49:40.240Z,16.70
2018-05-13T00:52:08.538Z,16.70
2018-05-13T00:54:48.482Z,16.70
2018-05-13T00:57:16.788Z,16.60
2018-05-13T00:59:45.090Z,16.60
2018-05-13T01:02:13.419Z,16.50
2018-05-13T01:04:41.688Z,16.50
2018-05-13T01:07:10.016Z,16.50
2018-05-13T01:09:39.079Z,16.40
2018-05-13T01:12:07.403Z,16.30
2018-05-13T01:14:36.464Z,16.30
2018-05-13T01:17:04.734Z,16.30
2018-05-13T01:19:33.019Z,16.30
2018-05-13T01:22:01.309Z,16.30
2018-05-13T01:24:30.355Z,16.20
2018-05-13T01:26:58.653Z,16.10
2018-05-13T01:29:27.755Z,16.10
2018-05-13T01:31:56.070Z,16.10
2018-05-13T01:34:24.328Z,16.10
2018-05-13T01:36:53.391Z,16.10
2018-05-13T01:39:21.676Z,16.00
2018-05-13T01:41:49.988Z,16.00
2018-05-13T01:44:18.296Z,16.00
2018-05-13T01:46:46.597Z,16.00
2018-05-13T01:49:14.903Z,16.00
2018-05-13T01:51:43.279Z,16.00
2018-05-13T01:54:11.555Z,15.90
2018-05-13T01:56:40.640Z,15.90
2018-05-13T01:59:08.950Z,15.90
2018-05-13T02:01:37.256Z,15.90
2018-05-13T02:04:05.561Z,15.90
2018-05-13T02:06:33.872Z,15.90
2018-05-13T02:09:02.932Z,15.90
2018-05-13T02:11:31.216Z,15.80
2018-05-13T02:14:01.142Z,15.80
2018-05-13T02:16:29.466Z,15.80
2018-05-13T02:18:57.739Z,15.90
2018-05-13T02:21:26.072Z,15.80
2018-05-13T02:23:54.346Z,15.80
2018-05-13T02:26:22.687Z,15.80
2018-05-13T02:28:51.465Z,15.70
2018-05-13T02:31:19.759Z,15.70
2018-05-13T02:33:48.051Z,15.70
2018-05-13T02:36:16.366Z,15.70
2018-05-13T02:38:45.443Z,15.60
2018-05-13T02:41:14.649Z,15.60
2018-05-13T02:43:43.708Z,15.60
2018-05-13T02:46:11.983Z,15.50
2018-05-13T02:48:40.319Z,15.60
2018-05-13T02:51:08.624Z,15.60
2018-05-13T02:53:36.932Z,15.60
2018-05-13T02:56:05.230Z,15.60
2018-05-13T02:58:34.303Z,15.60
2018-05-13T03:01:02.609Z,15.60
2018-05-13T03:03:30.928Z,15.60
2018-05-13T03:05:59.216Z,15.60
2018-05-13T03:08:27.528Z,15.60
2018-05-13T03:10:56.607Z,15.60
2018-05-13T03:13:25.685Z,15.60
2018-05-13T03:15:53.993Z,15.60
2018-05-13T03:18:23.094Z,15.70
2018-05-13T03:20:52.172Z,15.70
2018-05-13T03:23:20.507Z,15.70
2018-05-13T03:25:48.868Z,15.70
2018-05-13T03:28:17.198Z,15.60
2018-05-13T03:30:45.507Z,15.60
2018-05-13T03:33:13.819Z,15.60
2018-05-13T03:35:42.198Z,15.60
2018-05-13T03:38:10.515Z,15.60
2018-05-13T03:40:38.896Z,15.50
2018-05-13T03:43:07.168Z,15.50
2018-05-13T03:45:36.291Z,15.50
2018-05-13T03:48:05.365Z,15.50
2018-05-13T03:50:33.757Z,15.50
2018-05-13T03:53:02.838Z,15.50
2018-05-13T03:55:31.961Z,15.60
2018-05-13T03:58:01.031Z,15.60
2018-05-13T04:00:30.220Z,15.60
2018-05-13T04:02:58.563Z,15.60
2018-05-13T04:05:27.035Z,15.70
2018-05-13T04:11:01.172Z,15.70
2018-05-13T04:13:41.306Z,15.80
2018-05-13T04:16:09.631Z,15.90
2018-05-13T04:18:37.923Z,15.90
2018-05-13T04:21:07.035Z,16.00
2018-05-13T04:23:35.380Z,16.00
2018-05-13T04:26:03.771Z,16.10
2018-05-13T04:28:32.900Z,16.10
2018-05-13T04:31:01.224Z,16.10
2018-05-13T04:33:30.251Z,16.20
2018-05-13T04:35:59.435Z,16.30
2018-05-13T04:38:27.772Z,16.20
2018-05-13T04:40:56.085Z,16.30
2018-05-13T04:43:25.225Z,16.40
2018-05-13T04:45:53.549Z,16.30
2018-05-13T04:48:21.927Z,16.40
2018-05-13T04:50:50.274Z,16.50
2018-05-13T04:53:18.611Z,16.60
2018-05-13T04:55:46.993Z,16.60
2018-05-13T04:58:15.316Z,16.70
2018-05-13T05:00:43.629Z,16.80
2018-05-13T05:03:11.994Z,16.90
2018-05-13T05:05:40.345Z,17.00
2018-05-13T05:08:08.684Z,17.00
2018-05-13T05:10:37.027Z,17.10
2018-05-13T05:13:05.359Z,17.20
2018-05-13T05:15:33.719Z,17.20
2018-05-13T05:18:02.057Z,17.40
2018-05-13T05:20:30.360Z,17.50
2018-05-13T05:22:58.845Z,17.60
2018-05-13T05:25:27.964Z,17.70
2018-05-13T05:27:57.352Z,17.80
2018-05-13T05:30:25.725Z,17.80
2018-05-13T05:32:54.165Z,17.90
2018-05-13T05:35:22.615Z,17.90
2018-05-13T05:37:50.887Z,18.00
2018-05-13T05:40:20.035Z,18.20
2018-05-13T05:42:48.343Z,18.10
2018-05-13T05:45:17.410Z,18.30
2018-05-13T05:47:45.793Z,18.30
2018-05-13T05:50:14.084Z,18.40
2018-05-13T05:52:43.178Z,18.60
2018-05-13T05:55:12.360Z,18.60
2018-05-13T05:57:40.731Z,18.60
2018-05-13T06:00:09.004Z,18.70
2018-05-13T06:02:37.311Z,18.80
2018-05-13T06:05:06.392Z,18.90
2018-05-13T06:07:35.464Z,18.90
2018-05-13T06:10:03.751Z,18.90
2018-05-13T06:12:32.052Z,19.10
2018-05-13T06:15:01.142Z,19.20
2018-05-13T06:17:29.453Z,19.10
2018-05-13T06:19:57.779Z,19.30
2018-05-13T06:22:27.797Z,19.40
2018-05-13T06:24:56.275Z,19.40
2018-05-13T06:27:24.570Z,19.50
2018-05-13T06:29:52.873Z,19.60
2018-05-13T06:32:21.172Z,19.70
2018-05-13T06:34:49.491Z,19.80
2018-05-13T06:37:18.593Z,20.00
2018-05-13T06:39:46.890Z,19.90
2018-05-13T06:42:15.181Z,20.00
2018-05-13T06:44:44.331Z,20.10
2018-05-13T06:47:12.632Z,20.20
2018-05-13T06:49:40.928Z,20.20
2018-05-13T06:52:09.225Z,20.30
2018-05-13T06:54:37.529Z,20.30
2018-05-13T06:57:05.840Z,20.40
2018-05-13T06:59:34.903Z,20.50
2018-05-13T07:02:03.220Z,20.40
2018-05-13T07:04:31.518Z,20.50
2018-05-13T07:06:59.789Z,20.50
2018-05-13T07:09:28.108Z,20.60
2018-05-13T07:11:56.408Z,20.70
2018-05-13T07:14:25.495Z,20.80
2018-05-13T07:16:53.796Z,20.80
2018-05-13T07:19:22.099Z,20.90
2018-05-13T07:21:50.536Z,20.90
2018-05-13T07:24:18.817Z,21.00
2018-05-13T07:26:47.863Z,21.20
2018-05-13T07:29:16.213Z,21.10
2018-05-13T07:31:44.501Z,21.30
2018-05-13T07:34:12.820Z,21.20
2018-05-13T07:36:41.135Z,21.30
2018-05-13T07:39:09.453Z,21.30
2018-05-13T07:41:37.736Z,21.30
2018-05-13T07:44:06.035Z,21.40
2018-05-13T07:46:34.324Z,21.40
2018-05-13T07:49:03.384Z,21.30
2018-05-13T07:51:31.731Z,21.30
2018-05-13T07:54:00.003Z,21.40
2018-05-13T07:56:28.350Z,21.50
2018-05-13T07:58:57.424Z,21.60
2018-05-13T08:01:25.727Z,21.60
2018-05-13T08:03:54.031Z,21.70
2018-05-13T08:06:22.329Z,21.80
2018-05-13T08:08:50.614Z,21.90
2018-05-13T08:11:18.932Z,21.90
2018-05-13T08:13:48.037Z,22.10
2018-05-13T08:16:16.401Z,22.00
2018-05-13T08:18:44.781Z,22.10
2018-05-13T08:21:13.055Z,22.20
2018-05-13T08:23:42.152Z,22.30
2018-05-13T08:26:10.471Z,22.30
2018-05-13T08:28:38.751Z,22.30
2018-05-13T08:31:07.092Z,22.30
2018-05-13T08:33:35.389Z,22.30
2018-05-13T08:36:04.434Z,22.40
2018-05-13T08:38:32.723Z,22.40
2018-05-13T08:41:01.812Z,22.70
2018-05-13T08:43:30.102Z,22.60
2018-05-13T08:45:59.147Z,22.90
2018-05-13T08:48:27.488Z,22.80
2018-05-13T08:50:55.778Z,23.00
2018-05-13T08:53:24.088Z,23.10
2018-05-13T08:55:52.367Z,23.20
2018-05-13T08:58:20.651Z,23.10
2018-05-13T09:00:48.969Z,23.10
2018-05-13T09:03:18.035Z,23.20
2018-05-13T09:05:46.339Z,23.20
2018-05-13T09:08:14.651Z,23.30
2018-05-13T09:10:42.957Z,23.40
2018-05-13T09:13:11.345Z,23.50
2018-05-13T09:15:39.647Z,23.60
2018-05-13T09:18:08.719Z,23.70
2018-05-13T09:20:37.164Z,23.60
2018-05-13T09:23:06.194Z,23.70
2018-05-13T09:25:35.291Z,23.90
2018-05-13T09:28:03.576Z,23.80
2018-05-13T09:30:32.637Z,24.10
2018-05-13T09:33:00.954Z,24.00
2018-05-13T09:35:29.251Z,24.10
2018-05-13T09:37:57.581Z,24.20
2018-05-13T09:40:25.876Z,24.30
2018-05-13T09:42:56.340Z,24.40
2018-05-13T09:45:24.667Z,24.40
2018-05-13T09:47:53.754Z,24.50
2018-05-13T09:50:22.062Z,24.40
2018-05-13T09:52:50.359Z,24.50
2018-05-13T09:55:18.747Z,24.50
2018-05-13T09:57:47.091Z,24.50
2018-05-13T10:00:16.158Z,24.70
2018-05-13T10:02:44.447Z,24.60
2018-05-13T10:05:12.819Z,24.70
2018-05-13T10:07:41.203Z,24.80
2018-05-13T10:10:09.483Z,24.80
2018-05-13T10:12:37.852Z,24.80
2018-05-13T10:15:06.136Z,25.00
2018-05-13T10:17:34.443Z,25.10
2018-05-13T10:20:02.731Z,25.20
2018-05-13T10:22:31.003Z,25.30
2018-05-13T10:24:59.294Z,25.30
2018-05-13T10:27:27.615Z,25.40
2018-05-13T10:29:55.904Z,25.30
2018-05-13T10:32:24.975Z,25.40
2018-05-13T10:34:53.267Z,25.40
2018-05-13T10:37:22.375Z,25.40
2018-05-13T10:39:51.452Z,25.50
2018-05-13T10:42:19.731Z,25.50
2018-05-13T10:44:48.807Z,25.60
2018-05-13T10:47:17.102Z,25.50
2018-05-13T10:49:47.016Z,25.60
2018-05-13T10:52:15.329Z,25.50
2018-05-13T10:54:43.611Z,25.60
2018-05-13T10:57:11.944Z,25.60
2018-05-13T10:59:40.793Z,25.70
2018-05-13T11:02:09.095Z,25.80
2018-05-13T11:04:37.383Z,25.90
2018-05-13T11:07:05.762Z,26.00
2018-05-13T11:09:34.145Z,26.00
2018-05-13T11:12:02.460Z,26.00
2018-05-13T11:14:31.384Z,25.90
2018-05-13T11:16:59.663Z,25.90
2018-05-13T11:19:28.011Z,26.00
2018-05-13T11:21:57.108Z,26.20
2018-05-13T11:24:25.403Z,26.10
2018-05-13T11:26:53.811Z,26.20
2018-05-13T11:29:21.996Z,26.20
2018-05-13T11:31:51.073Z,26.40
2018-05-13T11:34:19.372Z,26.40
2018-05-13T11:36:48.239Z,26.60
2018-05-13T11:39:16.548Z,26.70
2018-05-13T11:41:45.632Z,26.70
2018-05-13T11:44:14.643Z,26.70
2018-05-13T11:46:43.039Z,26.80
2018-05-13T11:49:11.307Z,26.70
2018-05-13T11:51:40.364Z,26.70
2018-05-13T11:54:08.644Z,26.60
2018-05-13T11:56:37.019Z,26.60
2018-05-13T11:59:05.287Z,26.60
2018-05-13T12:01:33.592Z,26.70
2018-05-13T12:04:01.864Z,26.70
2018-05-13T12:06:30.168Z,26.80
2018-05-13T12:08:59.198Z,27.00
2018-05-13T12:11:27.464Z,27.00
2018-05-13T12:13:55.755Z,27.10
2018-05-13T12:16:24.052Z,27.10
2018-05-13T12:18:52.319Z,27.20
2018-05-13T12:21:20.633Z,27.20
2018-05-13T12:23:49.681Z,27.20
2018-05-13T12:26:17.994Z,27.20
2018-05-13T12:28:46.265Z,27.20
2018-05-13T12:31:14.540Z,27.20
2018-05-13T12:33:42.839Z,27.20
2018-05-13T12:36:11.868Z,27.30
2018-05-13T12:38:40.122Z,27.20
2018-05-13T12:41:08.424Z,27.30
2018-05-13T12:43:36.700Z,27.40
2018-05-13T12:46:04.956Z,27.40
2018-05-13T12:48:33.254Z,27.50
2018-05-13T12:51:01.515Z,27.50
2018-05-13T12:53:29.771Z,27.60
2018-05-13T12:55:58.058Z,27.60
2018-05-13T12:58:26.352Z,27.70
2018-05-13T13:00:54.603Z,27.70
2018-05-13T13:03:23.105Z,27.70
2018-05-13T13:05:51.383Z,27.70
2018-05-13T13:08:19.688Z,27.80
2018-05-13T13:10:47.963Z,27.80
2018-05-13T13:13:16.247Z,27.90
2018-05-13T13:15:44.525Z,27.90
2018-05-13T13:18:12.830Z,27.90
2018-05-13T13:20:41.890Z,28.00
2018-05-13T13:23:10.292Z,27.90
2018-05-13T13:25:38.537Z,27.90
2018-05-13T13:28:06.829Z,27.90
2018-05-13T13:30:35.108Z,28.10
2018-05-13T13:33:03.402Z,28.10
2018-05-13T13:35:32.442Z,28.10
2018-05-13T13:38:00.723Z,28.00
2018-05-13T13:40:28.983Z,28.10
2018-05-13T13:42:57.316Z,28.10
2018-05-13T13:45:25.584Z,28.10
2018-05-13T13:47:53.840Z,28.20
2018-05-13T13:50:22.116Z,28.30
2018-05-13T13:52:50.395Z,28.30
2018-05-13T13:55:18.675Z,28.20
2018-05-13T13:57:46.943Z,28.20
2018-05-13T14:00:15.229Z,28.20
2018-05-13T14:02:43.491Z,28.20
2018-05-13T14:05:11.783Z,28.30
2018-05-13T14:07:40.050Z,28.40
2018-05-13T14:10:08.327Z,28.30
2018-05-13T14:12:36.606Z,28.30
2018-05-13T14:15:04.895Z,28.30
2018-05-13T14:17:33.203Z,28.40
2018-05-13T14:20:02.354Z,28.50
2018-05-13T14:22:30.535Z,28.50
2018-05-13T14:24:58.911Z,28.50
2018-05-13T14:27:27.195Z,28.50
2018-05-13T14:29:55.582Z,28.50
2018-05-13T14:32:23.787Z,28.70
2018-05-13T14:34:52.816Z,28.90
2018-05-13T14:37:21.137Z,28.90
2018-05-13T14:39:49.422Z,29.00
2018-05-13T14:42:17.717Z,29.10
2018-05-13T14:44:46.739Z,29.00
2018-05-13T14:47:15.143Z,28.90
2018-05-13T14:49:43.408Z,29.00
2018-05-13T14:52:11.791Z,28.90
2018-05-13T14:54:40.067Z,28.60
2018-05-13T14:57:08.348Z,28.40
2018-05-13T14:59:36.603Z,28.50
2018-05-13T15:02:04.899Z,28.50
2018-05-13T15:04:33.172Z,28.40
2018-05-13T15:07:01.479Z,28.30
2018-05-13T15:09:29.831Z,28.20
2018-05-13T15:11:58.097Z,28.20
2018-05-13T15:14:26.487Z,28.40
2018-05-13T15:16:54.774Z,28.60
2018-05-13T15:19:23.843Z,29.20
2018-05-13T15:21:52.112Z,29.20
2018-05-13T15:24:20.398Z,29.70
2018-05-13T15:26:48.679Z,30.30
2018-05-13T15:29:16.959Z,30.80
2018-05-13T15:31:45.239Z,31.20
2018-05-13T15:34:13.532Z,31.40
2018-05-13T15:36:43.349Z,31.80
2018-05-13T15:39:12.382Z,32.10
2018-05-13T15:41:40.703Z,32.10
2018-05-13T15:44:09.020Z,32.60
2018-05-13T15:46:38.055Z,32.80
2018-05-13T15:49:06.321Z,32.70
2018-05-13T15:51:34.636Z,33.00
2018-05-13T15:54:03.004Z,33.20
2018-05-13T15:56:31.379Z,33.40
2018-05-13T15:58:59.665Z,33.50
2018-05-13T16:01:27.968Z,33.50
2018-05-13T16:03:56.995Z,33.20
2018-05-13T16:06:25.305Z,33.20
2018-05-13T16:08:53.573Z,33.70
2018-05-13T16:11:22.063Z,34.50
2018-05-13T16:13:50.444Z,34.90
2018-05-13T16:16:18.715Z,35.10
2018-05-13T16:18:47.108Z,35.50
2018-05-13T16:21:15.471Z,35.40
2018-05-13T16:23:43.760Z,35.40
2018-05-13T16:26:13.563Z,35.50
2018-05-13T16:28:41.843Z,35.50
2018-05-13T16:31:11.647Z,35.60
2018-05-13T16:33:39.927Z,35.60
2018-05-13T16:36:08.191Z,35.60
2018-05-13T16:38:36.585Z,35.70
2018-05-13T16:41:04.850Z,35.90
2018-05-13T16:43:33.126Z,35.60
2018-05-13T16:46:01.505Z,35.00
2018-05-13T16:48:29.799Z,34.70
2018-05-13T16:50:58.077Z,34.20
2018-05-13T16:53:26.336Z,33.30
2018-05-13T16:55:54.627Z,33.20
2018-05-13T16:58:22.887Z,33.30
2018-05-13T17:00:51.162Z,33.50
2018-05-13T17:03:19.443Z,33.60
2018-05-13T17:05:47.719Z,34.00
2018-05-13T17:08:16.004Z,33.90
2018-05-13T17:10:44.376Z,34.00
2018-05-13T17:13:12.671Z,34.20
2018-05-13T17:15:40.942Z,34.00
2018-05-13T17:18:10.024Z,33.40
2018-05-13T17:20:38.302Z,33.30
2018-05-13T17:23:06.579Z,33.10
2018-05-13T17:25:34.841Z,33.00
2018-05-13T17:28:03.123Z,32.70
2018-05-13T17:30:31.427Z,32.50
2018-05-13T17:32:59.693Z,32.20
2018-05-13T17:35:28.063Z,31.70
2018-05-13T17:37:56.328Z,31.10
2018-05-13T17:40:24.607Z,30.30
2018-05-13T17:42:52.991Z,29.70
2018-05-13T17:45:21.271Z,29.10
2018-05-13T17:47:49.573Z,28.60
2018-05-13T17:50:17.896Z,28.10
2018-05-13T17:52:46.191Z,27.70
2018-05-13T17:55:14.497Z,27.40
2018-05-13T17:57:43.544Z,26.60
2018-05-13T18:00:11.872Z,26.60
2018-05-13T18:02:40.166Z,26.40
2018-05-13T18:05:09.212Z,26.00
2018-05-13T18:07:37.483Z,26.00
2018-05-13T18:10:05.768Z,25.90
2018-05-13T18:12:34.064Z,25.70
2018-05-13T18:15:02.318Z,25.60
2018-05-13T18:17:30.695Z,25.50
2018-05-13T18:19:59.028Z,25.30
2018-05-13T18:22:27.316Z,25.20
2018-05-13T18:24:55.678Z,25.10
2018-05-13T18:27:23.838Z,25.00
2018-05-13T18:29:53.024Z,24.80
2018-05-13T18:32:21.290Z,24.70
2018-05-13T18:34:50.336Z,24.50
2018-05-13T18:37:18.628Z,24.50
2018-05-13T18:39:46.891Z,24.40
2018-05-13T18:42:15.180Z,24.30
2018-05-13T18:44:43.463Z,24.20
2018-05-13T18:47:11.775Z,24.10
2018-05-13T18:49:40.954Z,23.90
2018-05-13T18:52:10.012Z,23.70
2018-05-13T18:54:38.360Z,23.70
2018-05-13T18:57:06.600Z,23.60
2018-05-13T18:59:34.883Z,23.50
2018-05-13T19:02:03.963Z,23.30
2018-05-13T19:04:32.254Z,23.20
2018-05-13T19:07:00.548Z,23.20
2018-05-13T19:09:29.584Z,23.00
2018-05-13T19:11:57.960Z,22.90
2018-05-13T19:14:26.144Z,22.90
2018-05-13T19:16:54.513Z,22.80
2018-05-13T19:19:22.789Z,22.70
2018-05-13T19:21:51.087Z,22.60
2018-05-13T19:24:19.369Z,22.50
2018-05-13T19:26:47.672Z,22.50
2018-05-13T19:29:15.947Z,22.40
2018-05-13T19:31:44.212Z,22.30
2018-05-13T19:34:12.511Z,22.20
2018-05-13T19:36:40.810Z,22.20
2018-05-13T19:39:09.105Z,22.10
2018-05-13T19:41:37.383Z,22.00
2018-05-13T19:44:05.659Z,21.80
2018-05-13T19:46:33.947Z,21.70
2018-05-13T19:49:02.225Z,21.70
2018-05-13T19:51:30.523Z,21.50
2018-05-13T19:53:59.595Z,21.40
2018-05-13T19:56:27.868Z,21.40
2018-05-13T19:58:56.983Z,21.30
2018-05-13T20:01:26.066Z,21.20
2018-05-13T20:03:54.330Z,21.20
2018-05-13T20:06:22.640Z,21.10
2018-05-13T20:08:50.925Z,21.10
2018-05-13T20:11:19.183Z,21.00
2018-05-13T20:13:48.966Z,20.80
2018-05-13T20:16:17.251Z,20.80
2018-05-13T20:18:45.539Z,20.80
2018-05-13T20:21:13.923Z,20.70
2018-05-13T20:23:42.184Z,20.60
2018-05-13T20:26:10.451Z,20.60
2018-05-13T20:28:39.555Z,20.50
2018-05-13T20:31:07.811Z,20.40
2018-05-13T20:33:36.092Z,20.40
2018-05-13T20:36:04.449Z,20.40
2018-05-13T20:38:32.666Z,20.30
2018-05-13T20:41:01.029Z,20.30
2018-05-13T20:43:29.435Z,20.20
2018-05-13T20:45:57.715Z,20.20
2018-05-13T20:48:25.971Z,20.10
2018-05-13T20:50:54.255Z,20.10
2018-05-13T20:53:22.539Z,20.00
2018-05-13T20:55:50.943Z,20.00
2018-05-13T20:58:19.255Z,19.90
2018-05-13T21:00:47.527Z,19.80
2018-05-13T21:03:15.836Z,19.70
2018-05-13T21:05:44.103Z,19.70
2018-05-13T21:08:12.380Z,19.60
2018-05-13T21:10:40.679Z,19.60
2018-05-13T21:13:08.955Z,19.50
2018-05-13T21:15:37.248Z,19.40
2018-05-13T21:18:05.508Z,19.40
2018-05-13T21:20:33.792Z,19.40
2018-05-13T21:23:02.052Z,19.30
2018-05-13T21:25:30.327Z,19.30
2018-05-13T21:27:58.903Z,19.30
2018-05-13T21:30:27.210Z,19.30
2018-05-13T21:32:55.484Z,19.20
2018-05-13T21:35:23.747Z,19.20
2018-05-13T21:37:52.032Z,19.20
2018-05-13T21:40:20.299Z,19.10
2018-05-13T21:42:48.572Z,19.10
2018-05-13T21:45:16.856Z,19.10
2018-05-13T21:47:45.915Z,19.00
2018-05-13T21:50:14.252Z,18.90
2018-05-13T21:52:42.494Z,18.90
2018-05-13T21:55:10.787Z,18.90
2018-05-13T21:57:39.063Z,18.90
2018-05-13T22:00:07.308Z,18.80
2018-05-13T22:02:35.604Z,18.80
2018-05-13T22:05:03.863Z,18.70
2018-05-13T22:07:32.147Z,18.70
2018-05-13T22:10:00.430Z,18.70
2018-05-13T22:12:28.704Z,18.60
2018-05-13T22:14:56.996Z,18.60
2018-05-13T22:17:25.383Z,18.50
2018-05-13T22:19:53.640Z,18.50
2018-05-13T22:22:21.936Z,18.50
2018-05-13T22:24:50.296Z,18.50
2018-05-13T22:27:20.014Z,18.40
2018-05-13T22:29:49.962Z,18.40
2018-05-13T22:32:20.588Z,18.30
2018-05-13T22:34:49.607Z,18.20
2018-05-13T22:37:18.465Z,18.30
2018-05-13T22:39:48.439Z,18.20
2018-05-13T22:42:17.547Z,18.10
2018-05-13T22:44:47.310Z,18.10
2018-05-13T22:47:16.270Z,18.00
2018-05-13T22:49:45.214Z,18.00
2018-05-13T22:52:14.387Z,18.00
2018-05-13T22:54:42.900Z,17.90
2018-05-13T22:57:11.183Z,17.90
2018-05-13T22:59:39.428Z,17.80
2018-05-13T23:02:07.727Z,17.70
2018-05-13T23:04:36.003Z,17.60
2018-05-13T23:07:04.303Z,17.60
2018-05-13T23:09:32.568Z,17.50
2018-05-13T23:12:00.860Z,17.40
2018-05-13T23:14:29.230Z,17.30
2018-05-13T23:16:57.531Z,17.30
2018-05-13T23:19:26.603Z,17.20
2018-05-13T23:21:54.887Z,17.20
2018-05-13T23:24:23.167Z,17.20
2018-05-13T23:26:51.436Z,17.10
2018-05-13T23:29:19.700Z,17.10
2018-05-13T23:31:47.977Z,17.00
2018-05-13T23:34:16.256Z,16.90
2018-05-13T23:36:46.035Z,16.90
2018-05-13T23:39:14.347Z,16.80
2018-05-13T23:41:42.607Z,16.90
2018-05-13T23:44:10.936Z,16.80
2018-05-13T23:46:39.989Z,16.70
2018-05-13T23:49:08.251Z,16.70
2018-05-13T23:51:36.606Z,16.70
2018-05-13T23:54:04.810Z,16.70
2018-05-13T23:56:33.063Z,16.70
2018-05-13T23:59:01.356Z,16.70
